Pocono Summit, Pennsylvania
Current Conditions -  °F | °C
As of 9:53 AM on Tuesday 21 Oct 2014 (Local Time) from KMPO Reporting Station
Haze Haze  
Wind Chill: 47°   Ceiling: 700
Heat Index: 49°   Visibility: 6mi
Dew Point: 47°   Wind: 5mph
Humidity: 93%   Direction: 140°SE
Pressure: 29.88"   Gusts: NA
Location:  41.11°N, 75.39°W
Report Text: KMPO 211353Z AUTO 14004KT 6SM BR SCT003 BKN007 OVC060 09/08 A2988 RMK AO2 SLP121 T00940083 TSNO PNO $
Loading
Personal Weather Stations






























Interactive Weather Map New forecast layout! Learn more

10-Day Weather Forecast

Advertisements
Track Severe Weather on mobile